McCondy, Mississippi
Current Conditions -  °F | °C
As of 3:15 PM on Saturday 22 Nov 2014 (Local Time) from KM40 Reporting Station
Clear Clear  
Wind Chill: 70°   Ceiling: Unl
Heat Index: 70°   Visibility: 9mi
Dew Point: 54°   Wind: 7mph
Humidity: 56%   Direction: 150°SSE
Pressure: 30.13"   Gusts: NA
Location:  33.82°N, 88.84°W
Report Text: KM40 222115Z AUTO 15006KT 9SM CLR 21/12 A3013 RMK AO2
Loading
Personal Weather Stations






























Interactive Weather Map New forecast layout! Learn more

10-Day Weather Forecast

Advertisements
Track Severe Weather on mobile